Wetterdaten: aktuell Samstag, 23.03.2019 14:35
Datum Zeit Temp. A. GH5 cm GH Feuchte A. Luftdruck Regen Wind Richtung Richtung Windben
23.03.2019 14:35 21,3 C 26,4 C 28,2 C 40 % 1021,9 hPa 0,0 mm 4,1 km/h W 270 9,3 km/h
23.03.2019 13:35 21,3 C 29,1 C 32,9 C 40 % 1022,7 hPa 0,0 mm 4,4 km/h W-NW 292 7,9 km/h
23.03.2019 12:35 19,7 C 32,3 C 36,9 C 43 % 1023,3 hPa 0,0 mm 1,9 km/h N-NW 337 2,3 km/h
23.03.2019 11:35 18,3 C 29,4 C 35,0 C 45 % 1024,3 hPa 0,0 mm 6,6 km/h NW 315 14,7 km/h
23.03.2019 10:35 16,5 C 27,7 C 30,0 C 45 % 1024,4 hPa 0,0 mm 5,8 km/h N 360 12,2 km/h
23.03.2019 09:35 14,9 C 24,4 C 28,6 C 49 % 1024,2 hPa 0,0 mm 3,5 km/h N-NW 337 5,4 km/h
23.03.2019 08:35 11,0 C 25,3 C 24,2 C 64 % 1024,4 hPa 0,0 mm 0,0 km/h NO 45 0,0 km/h
23.03.2019 07:35 6,3 C 14,0 C 11,2 C 74 % 1024,1 hPa 0,0 mm 0,0 km/h N-NO 22 0,0 km/h
23.03.2019 06:35 3,9 C 7,2 C 3,6 C 74 % 1023,4 hPa 0,0 mm 0,0 km/h O 90 0,0 km/h
23.03.2019 05:35 3,9 C 6,8 C 3,4 C 73 % 1023,4 hPa 0,0 mm 0,0 km/h O-NO 67 0,0 km/h
23.03.2019 04:35 4,1 C 7,2 C 3,8 C 71 % 1023,7 hPa 0,0 mm 0,2 km/h NO 45 0,0 km/h
23.03.2019 03:35 4,4 C 7,7 C 4,2 C 70 % 1024,1 hPa 0,0 mm 0,0 km/h S 180 0,0 km/h
23.03.2019 02:35 4,9 C 8,2 C 4,8 C 67 % 1024,5 hPa 0,0 mm 0,0 km/h NO 45 0,0 km/h
23.03.2019 01:35 5,6 C 8,8 C 5,4 C 65 % 1024,9 hPa 0,0 mm 0,0 km/h O-NO 67 0,0 km/h
23.03.2019 00:35 6,2 C 9,6 C 5,9 C 62 % 1025,1 hPa 0,0 mm 0,4 km/h NO 45 2,9 km/h
22.03.2019 23:35 7,2 C 10,3 C 6,7 C 57 % 1025,4 hPa 0,0 mm 0,0 km/h O-NO 67 0,0 km/h
22.03.2019 22:35 8,4 C 10,9 C 7,6 C 53 % 1025,8 hPa 0,0 mm 0,0 km/h NO 45 0,0 km/h
22.03.2019 21:35 9,6 C 12,1 C 8,7 C 50 % 1025,8 hPa 0,0 mm 0,0 km/h S-SW 202 0,0 km/h
22.03.2019 20:35 10,3 C 12,8 C 9,6 C 47 % 1025,7 hPa 0,0 mm 2,7 km/h S-SW 202 4,1 km/h
22.03.2019 19:35 11,6 C 14,2 C 11,2 C 43 % 1025,5 hPa 0,0 mm 3,5 km/h S 180 3,9 km/h
22.03.2019 18:35 13,9 C 16,0 C 14,4 C 39 % 1025,4 hPa 0,0 mm 0,0 km/h N-NW 337 0,0 km/h
22.03.2019 17:35 16,7 C 19,8 C 22,8 C 34 % 1025,4 hPa 0,0 mm 0,8 km/h N-NO 22 0,0 km/h
22.03.2019 16:35 18,5 C 21,9 C 26,5 C 31 % 1025,6 hPa 0,0 mm 2,3 km/h W 270 2,7 km/h
22.03.2019 15:35 19,9 C 23,0 C 25,4 C 31 % 1026,1 hPa 0,0 mm 3,5 km/h NW 315 8,1 km/h
22.03.2019 15:00 19,3 C 24,1 C 27,4 C 31 % 1026,3 hPa 0,0 mm 3,7 km/h W-SW 247 5,2 km/h
_ Min-Zeit 06:30 06:00 05:45 15:10 14:25 - 17:45 - - 15:10
Minimum _ 3,7 C 6,7 C 3,3 C 29 % 1021,9 hPa - 0,0 km/h - - 0,0 km/h
_ Max-Zeit 13:35 12:35 12:30 06:55 15:05 15:00 12:15 - - 11:35
Maximum _ 21,3 C 32,3 C 37,0 C 75 % 1026,4 hPa 0,0 mm 6,8 km/h
O
- - 14,7 km/h
NW
Durchschnitt _ 12,0 C 17,2 C 16,9 C 51 % 1024,7 hPa #0,0 mm 1,9 km/h NW - 2,7 km/h